createdAt,value
2022-08-07T00:02:40.430Z,16.71
2022-08-07T00:05:03.959Z,16.82
2022-08-07T00:07:40.360Z,16.88
2022-08-07T00:10:30.448Z,16.87
2022-08-07T00:13:02.100Z,16.75
2022-08-07T00:15:35.869Z,16.67
2022-08-07T00:18:03.757Z,16.58
2022-08-07T00:20:34.488Z,16.40
2022-08-07T00:23:03.062Z,16.25
2022-08-07T00:25:37.508Z,16.21
2022-08-07T00:28:08.495Z,16.14
2022-08-07T00:30:37.693Z,16.14
2022-08-07T00:33:05.689Z,16.07
2022-08-07T00:35:39.258Z,16.11
2022-08-07T00:38:06.501Z,16.21
2022-08-07T00:40:39.837Z,16.21
2022-08-07T00:43:10.535Z,16.21
2022-08-07T00:46:00.323Z,16.10
2022-08-07T00:48:33.511Z,15.96
2022-08-07T00:51:02.808Z,15.92
2022-08-07T00:53:38.925Z,15.80
2022-08-07T00:56:20.255Z,15.72
2022-08-07T00:58:49.588Z,15.54
2022-08-07T01:01:18.766Z,15.56
2022-08-07T01:03:56.283Z,15.38
2022-08-07T01:06:29.221Z,15.36
2022-08-07T01:08:58.557Z,15.43
2022-08-07T01:12:23.931Z,15.38
2022-08-07T01:14:28.535Z,15.24
2022-08-07T01:16:56.915Z,15.11
2022-08-07T01:19:32.524Z,15.25
2022-08-07T01:22:03.661Z,15.16
2022-08-07T01:24:36.151Z,15.12
2022-08-07T01:27:03.835Z,15.06
2022-08-07T01:29:33.925Z,15.19
2022-08-07T01:32:12.265Z,15.16
2022-08-07T01:34:44.520Z,15.01
2022-08-07T01:37:17.261Z,15.02
2022-08-07T01:39:49.472Z,15.02
2022-08-07T01:42:38.115Z,15.15
2022-08-07T01:45:18.301Z,15.37
2022-08-07T01:48:18.476Z,15.38
2022-08-07T01:50:43.147Z,15.28
2022-08-07T01:53:11.752Z,15.17
2022-08-07T01:55:57.038Z,15.02
2022-08-07T01:58:27.395Z,15.03
2022-08-07T02:01:24.985Z,15.04
2022-08-07T02:04:02.348Z,14.90
2022-08-07T02:06:34.533Z,14.91
2022-08-07T02:09:05.372Z,14.81
2022-08-07T02:12:03.683Z,14.67
2022-08-07T02:14:35.783Z,14.64
2022-08-07T02:17:04.137Z,14.69
2022-08-07T02:20:06.815Z,14.60
2022-08-07T02:22:25.620Z,14.54
2022-08-07T02:24:59.596Z,14.43
2022-08-07T02:27:34.295Z,14.38
2022-08-07T02:30:07.137Z,14.27
2022-08-07T02:32:39.547Z,14.37
2022-08-07T02:36:27.254Z,14.33
2022-08-07T02:38:22.821Z,14.42
2022-08-07T02:41:00.072Z,14.46
2022-08-07T02:43:28.602Z,14.47
2022-08-07T02:46:02.759Z,14.24
2022-08-07T02:48:34.509Z,14.14
2022-08-07T02:51:28.859Z,13.99
2022-08-07T02:54:03.207Z,14.04
2022-08-07T02:56:33.230Z,14.05
2022-08-07T02:59:04.733Z,13.97
2022-08-07T03:01:40.062Z,14.19
2022-08-07T03:04:12.432Z,14.06
2022-08-07T03:06:48.033Z,14.02
2022-08-07T03:09:43.483Z,13.86
2022-08-07T03:12:05.317Z,13.85
2022-08-07T03:14:36.230Z,13.47
2022-08-07T03:17:08.766Z,13.59
2022-08-07T03:19:37.131Z,13.66
2022-08-07T03:22:07.145Z,13.62
2022-08-07T03:24:36.740Z,13.61
2022-08-07T03:27:10.474Z,13.80
2022-08-07T03:29:57.129Z,13.72
2022-08-07T03:32:32.218Z,13.73
2022-08-07T03:35:18.069Z,13.67
2022-08-07T03:37:53.943Z,13.65
2022-08-07T03:40:27.454Z,13.63
2022-08-07T03:43:04.114Z,13.72
2022-08-07T03:45:43.513Z,13.57
2022-08-07T03:48:20.075Z,13.45
2022-08-07T03:50:56.115Z,13.41
2022-08-07T03:53:49.883Z,13.32
2022-08-07T03:56:18.567Z,13.42
2022-08-07T03:59:08.993Z,13.39
2022-08-07T04:01:45.434Z,13.34
2022-08-07T04:04:17.379Z,13.29
2022-08-07T04:06:50.872Z,13.42
2022-08-07T04:09:19.977Z,13.39
2022-08-07T04:12:26.570Z,13.43
2022-08-07T04:14:43.879Z,13.57
2022-08-07T04:17:20.902Z,13.47
2022-08-07T04:20:10.245Z,13.62
2022-08-07T04:22:39.246Z,13.61
2022-08-07T04:25:23.515Z,13.90
2022-08-07T04:27:59.447Z,13.80
2022-08-07T04:30:35.790Z,13.77
2022-08-07T04:33:15.478Z,13.80
2022-08-07T04:35:50.545Z,13.85
2022-08-07T04:38:22.973Z,13.96
2022-08-07T04:40:56.650Z,14.03
2022-08-07T04:44:12.023Z,13.96
2022-08-07T04:46:59.697Z,13.87
2022-08-07T04:50:05.807Z,13.88
2022-08-07T04:52:55.889Z,14.11
2022-08-07T04:58:14.161Z,13.87
2022-08-07T05:01:50.454Z,14.20
2022-08-07T05:04:59.531Z,14.46
2022-08-07T05:08:10.472Z,14.63
2022-08-07T05:10:49.308Z,14.81
2022-08-07T05:14:52.255Z,14.93
2022-08-07T05:16:29.469Z,14.86
2022-08-07T05:19:07.076Z,14.95
2022-08-07T05:21:59.813Z,15.23
2022-08-07T05:24:30.372Z,15.38
2022-08-07T05:27:00.457Z,15.62
2022-08-07T05:29:38.814Z,15.71
2022-08-07T05:32:19.600Z,15.90
2022-08-07T05:34:48.756Z,16.03
2022-08-07T05:37:25.491Z,16.14
2022-08-07T05:40:13.581Z,16.29
2022-08-07T05:42:40.084Z,16.41
2022-08-07T05:45:26.196Z,16.45
2022-08-07T05:48:01.459Z,16.56
2022-08-07T05:50:32.061Z,16.67
2022-08-07T05:53:02.790Z,16.73
2022-08-07T05:56:03.030Z,16.80
2022-08-07T05:58:36.350Z,16.85
2022-08-07T06:01:10.496Z,16.92
2022-08-07T06:04:01.224Z,17.33
2022-08-07T06:06:29.386Z,17.55
2022-08-07T06:08:59.248Z,17.80
2022-08-07T06:11:31.687Z,17.87
2022-08-07T06:14:12.620Z,17.90
2022-08-07T06:16:56.041Z,18.04
2022-08-07T06:19:52.169Z,18.27
2022-08-07T06:22:24.051Z,18.52
2022-08-07T06:24:58.476Z,18.67
2022-08-07T06:27:44.502Z,18.82
2022-08-07T06:30:32.427Z,18.96
2022-08-07T06:33:15.582Z,18.78
2022-08-07T06:35:48.077Z,18.92
2022-08-07T06:38:33.415Z,18.98
2022-08-07T06:41:07.006Z,19.16
2022-08-07T06:43:39.277Z,19.09
2022-08-07T06:46:12.332Z,19.38
2022-08-07T06:48:42.131Z,19.46
2022-08-07T06:51:31.366Z,19.68
2022-08-07T06:55:33.772Z,19.71
2022-08-07T06:56:59.358Z,19.75
2022-08-07T07:00:13.122Z,20.02
2022-08-07T07:02:48.581Z,20.11
2022-08-07T07:06:03.226Z,20.46
2022-08-07T07:08:18.720Z,20.13
2022-08-07T07:10:56.971Z,20.36
2022-08-07T07:13:58.548Z,20.74
2022-08-07T07:16:45.240Z,20.69
2022-08-07T07:19:56.263Z,20.80
2022-08-07T07:22:34.163Z,21.08
2022-08-07T07:26:30.877Z,20.66
2022-08-07T07:28:07.761Z,20.73
2022-08-07T07:31:10.692Z,20.72
2022-08-07T07:33:39.475Z,20.96
2022-08-07T07:36:12.830Z,21.22
2022-08-07T07:38:43.381Z,21.25
2022-08-07T07:41:16.771Z,21.08
2022-08-07T07:44:16.961Z,20.95
2022-08-07T07:46:55.877Z,21.07
2022-08-07T07:50:35.829Z,21.20
2022-08-07T07:52:18.873Z,21.32
2022-08-07T07:54:51.183Z,21.51
2022-08-07T07:57:50.212Z,21.84
2022-08-07T08:00:21.181Z,21.52
2022-08-07T08:03:07.997Z,21.74
2022-08-07T08:05:54.339Z,22.28
2022-08-07T08:08:35.708Z,22.70
2022-08-07T08:11:16.560Z,23.01
2022-08-07T08:13:54.052Z,22.84
2022-08-07T08:16:29.997Z,23.36
2022-08-07T08:19:17.990Z,23.44
2022-08-07T08:22:14.546Z,23.76
2022-08-07T08:25:24.798Z,24.07
2022-08-07T08:28:03.633Z,24.16
2022-08-07T08:30:37.391Z,23.76
2022-08-07T08:33:16.886Z,23.67
2022-08-07T08:35:51.835Z,23.80
2022-08-07T08:38:31.189Z,23.71
2022-08-07T08:41:05.811Z,23.96
2022-08-07T08:43:58.806Z,24.14
2022-08-07T08:46:38.989Z,24.42
2022-08-07T08:49:33.563Z,24.45
2022-08-07T08:52:18.902Z,24.84
2022-08-07T08:55:21.065Z,24.86
2022-08-07T08:58:28.629Z,25.56
2022-08-07T09:01:15.113Z,25.80
2022-08-07T09:04:26.064Z,26.45
2022-08-07T09:07:27.086Z,26.63
2022-08-07T09:10:27.809Z,26.47
2022-08-07T09:13:37.982Z,26.14
2022-08-07T09:16:29.876Z,25.89
2022-08-07T09:19:51.419Z,26.05
2022-08-07T09:24:32.558Z,26.58
2022-08-07T09:26:20.852Z,26.46
2022-08-07T09:30:01.187Z,26.69
2022-08-07T09:32:26.342Z,27.21
2022-08-07T09:36:03.130Z,27.63
2022-08-07T09:38:56.804Z,27.84
2022-08-07T09:42:03.050Z,27.42
2022-08-07T09:47:37.257Z,27.86
2022-08-07T09:47:55.861Z,27.78
2022-08-07T09:50:54.646Z,27.70
2022-08-07T09:53:24.748Z,28.09
2022-08-07T09:56:04.612Z,28.27
2022-08-07T09:59:21.626Z,28.81
2022-08-07T10:02:24.207Z,27.98
2022-08-07T10:05:58.139Z,28.27
2022-08-07T10:08:57.396Z,28.39
2022-08-07T10:12:01.459Z,27.54
2022-08-07T10:15:18.657Z,27.26
2022-08-07T10:18:03.406Z,27.28
2022-08-07T10:21:29.680Z,27.18
2022-08-07T10:24:39.792Z,28.39
2022-08-07T10:27:45.723Z,28.74
2022-08-07T10:30:19.590Z,29.04
2022-08-07T10:34:14.068Z,28.92
2022-08-07T10:37:12.349Z,29.05
2022-08-07T10:40:05.993Z,28.80
2022-08-07T10:42:59.913Z,29.44
2022-08-07T10:45:57.750Z,29.84
2022-08-07T10:49:14.735Z,29.72
2022-08-07T10:52:13.518Z,29.86
2022-08-07T10:55:20.803Z,29.13
2022-08-07T10:58:33.343Z,28.93
2022-08-07T11:01:35.595Z,29.23
2022-08-07T11:05:16.066Z,28.90
2022-08-07T11:08:30.172Z,29.54
2022-08-07T11:11:09.645Z,30.20
2022-08-07T11:14:56.640Z,30.72
2022-08-07T11:17:23.317Z,31.15
2022-08-07T11:20:13.650Z,31.34
2022-08-07T11:23:30.266Z,31.44
2022-08-07T11:26:24.882Z,31.23
2022-08-07T11:29:41.036Z,30.77
2022-08-07T11:32:11.854Z,30.77
2022-08-07T11:34:49.655Z,30.63
2022-08-07T11:37:57.975Z,30.62
2022-08-07T11:41:04.677Z,30.31
2022-08-07T11:44:11.379Z,30.24
2022-08-07T11:47:21.248Z,30.96
2022-08-07T11:50:32.437Z,31.15
2022-08-07T11:53:27.453Z,30.96
2022-08-07T11:56:48.628Z,30.81
2022-08-07T12:00:10.407Z,31.11
2022-08-07T12:03:45.631Z,31.37
2022-08-07T12:06:39.140Z,31.83
2022-08-07T12:09:28.772Z,32.08
2022-08-07T12:12:14.765Z,32.57
2022-08-07T12:15:35.846Z,32.38
2022-08-07T12:18:16.316Z,32.33
2022-08-07T12:21:21.124Z,32.21
2022-08-07T12:24:38.140Z,32.09
2022-08-07T12:27:18.709Z,31.72
2022-08-07T12:30:06.740Z,31.98
2022-08-07T12:33:09.268Z,31.93
2022-08-07T12:35:58.193Z,31.96
2022-08-07T12:38:42.877Z,32.32
2022-08-07T12:41:16.156Z,32.11
2022-08-07T12:44:02.860Z,32.10
2022-08-07T12:46:55.998Z,31.77
2022-08-07T12:49:52.918Z,31.28
2022-08-07T12:52:48.605Z,30.90
2022-08-07T12:55:41.208Z,30.93
2022-08-07T12:58:28.294Z,31.02
2022-08-07T13:01:28.070Z,31.02
2022-08-07T13:04:38.857Z,31.11
2022-08-07T13:08:13.700Z,31.65
2022-08-07T13:11:28.710Z,31.68
2022-08-07T13:14:09.297Z,31.67
2022-08-07T13:16:51.204Z,31.57
2022-08-07T13:19:45.934Z,31.37
2022-08-07T13:22:36.725Z,31.77
2022-08-07T13:25:23.893Z,31.38
2022-08-07T13:28:11.236Z,30.92
2022-08-07T13:30:52.215Z,31.06
2022-08-07T13:34:34.688Z,31.21
2022-08-07T13:36:39.724Z,31.20
2022-08-07T13:39:49.777Z,31.43
2022-08-07T13:42:06.318Z,31.57
2022-08-07T13:44:37.391Z,31.25
2022-08-07T13:47:09.124Z,31.38
2022-08-07T13:50:34.310Z,31.74
2022-08-07T13:52:38.083Z,31.83
2022-08-07T13:55:26.265Z,32.01
2022-08-07T13:58:28.168Z,32.07
2022-08-07T14:01:10.064Z,31.89
2022-08-07T14:04:07.284Z,31.88
2022-08-07T14:06:40.139Z,32.05
2022-08-07T14:10:02.488Z,32.00
2022-08-07T14:12:29.910Z,31.32
2022-08-07T14:15:23.726Z,31.30
2022-08-07T14:18:28.057Z,30.94
2022-08-07T14:20:54.412Z,30.74
2022-08-07T14:23:31.385Z,31.06
2022-08-07T14:26:29.746Z,31.23
2022-08-07T14:29:08.637Z,30.97
2022-08-07T14:31:57.985Z,30.82
2022-08-07T14:34:32.222Z,30.66
2022-08-07T14:37:03.617Z,30.70
2022-08-07T14:40:17.646Z,30.49
2022-08-07T14:42:32.320Z,30.67
2022-08-07T14:45:21.738Z,30.48
2022-08-07T14:47:51.250Z,30.34
2022-08-07T14:50:27.946Z,30.37
2022-08-07T14:52:57.173Z,30.14
2022-08-07T14:55:55.318Z,30.22
2022-08-07T14:58:32.190Z,29.62
2022-08-07T15:01:22.059Z,29.44
2022-08-07T15:03:52.348Z,29.24
2022-08-07T15:06:34.293Z,29.27
2022-08-07T15:09:47.086Z,29.30
2022-08-07T15:12:26.355Z,29.26
2022-08-07T15:15:22.260Z,29.26
2022-08-07T15:21:59.587Z,29.03
2022-08-07T15:25:15.780Z,28.75
2022-08-07T15:27:17.172Z,28.65
2022-08-07T15:30:08.408Z,28.56
2022-08-07T15:33:03.766Z,28.46
2022-08-07T15:36:01.176Z,28.69
2022-08-07T15:42:44.540Z,28.51
2022-08-07T15:44:15.196Z,28.42
2022-08-07T15:46:52.578Z,28.45
2022-08-07T15:50:05.472Z,28.46
2022-08-07T15:52:30.265Z,28.33
2022-08-07T15:55:04.518Z,28.28
2022-08-07T15:57:48.763Z,28.33
2022-08-07T16:00:22.786Z,28.46
2022-08-07T16:03:20.520Z,28.75
2022-08-07T16:05:51.827Z,28.49
2022-08-07T16:08:31.069Z,28.63
2022-08-07T16:11:29.322Z,28.37
2022-08-07T16:14:17.143Z,28.03
2022-08-07T16:17:01.877Z,27.71
2022-08-07T16:19:41.796Z,27.59
2022-08-07T16:22:38.247Z,27.63
2022-08-07T16:25:54.792Z,27.91
2022-08-07T16:30:07.582Z,28.07
2022-08-07T16:32:34.485Z,28.12
2022-08-07T16:35:51.499Z,28.22
2022-08-07T16:39:00.858Z,27.93
2022-08-07T16:41:59.934Z,27.76
2022-08-07T16:46:47.649Z,27.68
2022-08-07T16:50:27.247Z,27.81
2022-08-07T16:52:52.108Z,27.84
2022-08-07T16:55:47.318Z,27.78
2022-08-07T16:59:10.211Z,27.81
2022-08-07T17:01:41.027Z,27.82
2022-08-07T17:04:24.490Z,28.10
2022-08-07T17:07:02.718Z,27.91
2022-08-07T17:10:05.081Z,27.71
2022-08-07T17:12:44.364Z,27.78
2022-08-07T17:15:15.746Z,27.59
2022-08-07T17:17:48.524Z,27.63
2022-08-07T17:20:42.792Z,27.68
2022-08-07T17:23:22.474Z,27.62
2022-08-07T17:26:36.857Z,27.69
2022-08-07T17:30:14.385Z,27.51
2022-08-07T17:32:36.140Z,27.63
2022-08-07T17:35:49.743Z,27.68
2022-08-07T17:38:51.071Z,27.65
2022-08-07T17:42:03.755Z,27.69
2022-08-07T17:44:41.623Z,27.69
2022-08-07T17:47:42.249Z,27.51
2022-08-07T17:50:22.866Z,27.19
2022-08-07T17:53:05.866Z,27.26
2022-08-07T17:55:59.968Z,27.12
2022-08-07T17:58:51.116Z,27.31
2022-08-07T18:01:45.695Z,27.38
2022-08-07T18:04:34.672Z,27.29
2022-08-07T18:07:34.267Z,27.23
2022-08-07T18:10:28.656Z,27.18
2022-08-07T18:13:16.553Z,27.12
2022-08-07T18:16:32.801Z,26.88
2022-08-07T18:21:03.562Z,26.83
2022-08-07T18:22:47.602Z,26.65
2022-08-07T18:25:40.835Z,26.81
2022-08-07T18:28:34.581Z,26.85
2022-08-07T18:31:50.370Z,26.75
2022-08-07T18:34:53.192Z,26.35
2022-08-07T18:38:56.385Z,26.35
2022-08-07T18:41:09.420Z,26.26
2022-08-07T18:43:57.842Z,26.15
2022-08-07T18:47:05.242Z,26.06
2022-08-07T18:50:35.186Z,25.91
2022-08-07T18:53:06.100Z,25.82
2022-08-07T18:56:31.851Z,25.70
2022-08-07T18:59:09.842Z,25.64
2022-08-07T19:02:36.554Z,25.37
2022-08-07T19:06:02.504Z,25.24
2022-08-07T19:08:29.738Z,25.19
2022-08-07T19:11:36.620Z,25.04
2022-08-07T19:14:19.804Z,25.22
2022-08-07T19:17:06.694Z,25.11
2022-08-07T19:19:48.933Z,25.01
2022-08-07T19:22:44.943Z,24.98
2022-08-07T19:26:22.644Z,24.97
2022-08-07T19:28:58.139Z,24.86
2022-08-07T19:32:01.159Z,24.79
2022-08-07T19:34:34.108Z,24.71
2022-08-07T19:37:17.792Z,24.56
2022-08-07T19:40:08.834Z,24.38
2022-08-07T19:42:44.510Z,24.37
2022-08-07T19:46:00.955Z,24.35
2022-08-07T19:48:18.688Z,24.32
2022-08-07T19:50:53.519Z,24.16
2022-08-07T19:54:30.888Z,24.05
2022-08-07T19:57:51.693Z,23.96
2022-08-07T19:59:24.554Z,23.81
2022-08-07T20:02:15.475Z,23.83
2022-08-07T20:04:48.981Z,23.58
2022-08-07T20:07:23.541Z,23.73
2022-08-07T20:10:34.070Z,23.66
2022-08-07T20:12:49.097Z,23.60
2022-08-07T20:15:22.229Z,23.66
2022-08-07T20:18:01.696Z,23.60
2022-08-07T20:20:35.054Z,23.41
2022-08-07T20:23:23.304Z,23.46
2022-08-07T20:26:02.816Z,23.46
2022-08-07T20:28:31.905Z,23.26
2022-08-07T20:31:02.674Z,23.31
2022-08-07T20:33:36.873Z,23.17
2022-08-07T20:36:10.919Z,23.20
2022-08-07T20:38:53.312Z,23.16
2022-08-07T20:41:38.460Z,22.92
2022-08-07T20:44:13.080Z,22.90
2022-08-07T20:46:44.367Z,22.83
2022-08-07T20:49:59.819Z,22.81
2022-08-07T20:52:17.630Z,22.67
2022-08-07T20:54:56.556Z,22.67
2022-08-07T20:57:35.974Z,22.72
2022-08-07T21:00:09.539Z,22.47
2022-08-07T21:03:01.870Z,22.34
2022-08-07T21:05:54.819Z,22.41
2022-08-07T21:08:46.669Z,22.31
2022-08-07T21:11:22.095Z,22.43
2022-08-07T21:14:32.134Z,22.51
2022-08-07T21:18:00.721Z,22.39
2022-08-07T21:19:51.770Z,22.42
2022-08-07T21:22:51.315Z,22.28
2022-08-07T21:25:58.626Z,22.28
2022-08-07T21:28:50.910Z,22.23
2022-08-07T21:32:42.581Z,21.97
2022-08-07T21:34:48.998Z,21.53
2022-08-07T21:37:57.178Z,21.54
2022-08-07T21:40:39.267Z,21.63
2022-08-07T21:43:47.307Z,21.57
2022-08-07T21:46:34.524Z,21.56
2022-08-07T21:49:16.797Z,21.58
2022-08-07T21:51:51.354Z,21.42
2022-08-07T21:54:59.662Z,21.31
2022-08-07T21:58:18.396Z,21.13
2022-08-07T22:01:08.438Z,20.98
2022-08-07T22:04:02.558Z,21.02
2022-08-07T22:06:46.252Z,21.13
2022-08-07T22:09:25.401Z,21.00
2022-08-07T22:12:07.059Z,21.12
2022-08-07T22:15:00.526Z,21.19
2022-08-07T22:17:37.917Z,21.13
2022-08-07T22:20:23.540Z,21.09
2022-08-07T22:23:01.807Z,21.07
2022-08-07T22:25:43.707Z,21.11
2022-08-07T22:28:34.094Z,20.93
2022-08-07T22:31:45.286Z,20.83
2022-08-07T22:34:29.095Z,20.64
2022-08-07T22:38:03.211Z,20.66
2022-08-07T22:40:32.490Z,20.67
2022-08-07T22:43:34.052Z,20.26
2022-08-07T22:46:47.065Z,20.25
2022-08-07T22:49:27.364Z,20.36
2022-08-07T22:52:40.060Z,20.36
2022-08-07T22:55:43.180Z,20.47
2022-08-07T22:58:50.716Z,20.50
2022-08-07T23:01:54.480Z,20.38
2022-08-07T23:06:09.121Z,20.25
2022-08-07T23:08:33.489Z,20.18
2022-08-07T23:11:21.588Z,20.00
2022-08-07T23:14:16.904Z,20.11
2022-08-07T23:17:30.440Z,20.05
2022-08-07T23:20:51.744Z,20.06
2022-08-07T23:24:05.260Z,19.91
2022-08-07T23:26:27.813Z,20.02
2022-08-07T23:29:43.218Z,19.99
2022-08-07T23:34:19.444Z,19.94
2022-08-07T23:36:05.962Z,19.76
2022-08-07T23:39:02.073Z,19.75
2022-08-07T23:42:05.056Z,19.66
2022-08-07T23:45:03.474Z,19.73
2022-08-07T23:48:36.497Z,19.57
2022-08-07T23:53:01.378Z,19.54
2022-08-07T23:54:54.291Z,19.42
2022-08-07T23:57:47.954Z,19.34
